Lawrenceburg, Kentucky
Current Conditions -  °F | °C
As of 9:53 PM on Friday 28 Nov 2014 (Local Time) from KFFT Reporting Station
Clear Clear  
Wind Chill: 26°   Ceiling: Unl
Heat Index: 32°   Visibility: 10mi
Dew Point: 18°   Wind: 6mph
Humidity: 56%   Direction: 160°SSE
Pressure: 30.09"   Gusts: NA
Location:  38.04°N, 84.89°W
Report Text: KFFT 290253Z AUTO 16005KT 10SM CLR 00/M08 A3009 RMK AO2 SLP198 T00001078 56025
Loading
Personal Weather Stations






























Interactive Weather Map New forecast layout! Learn more

10-Day Weather Forecast

Advertisements
Track Severe Weather on mobile